createdAt,value
2023-02-11T00:01:32.272Z,92.41
2023-02-11T00:03:59.832Z,91.48
2023-02-11T00:06:28.534Z,90.51
2023-02-11T00:08:57.585Z,89.97
2023-02-11T00:11:31.322Z,89.03
2023-02-11T00:13:59.992Z,89.31
2023-02-11T00:16:27.576Z,89.82
2023-02-11T00:18:55.893Z,90.39
2023-02-11T00:21:25.194Z,90.28
2023-02-11T00:23:52.567Z,89.47
2023-02-11T00:26:24.203Z,89.18
2023-02-11T00:28:51.628Z,88.47
2023-02-11T00:31:19.785Z,88.13
2023-02-11T00:33:47.190Z,87.84
2023-02-11T00:36:22.716Z,88.07
2023-02-11T00:38:51.171Z,89.00
2023-02-11T00:41:19.504Z,89.44
2023-02-11T00:43:46.874Z,89.83
2023-02-11T00:46:15.096Z,90.42
2023-02-11T00:48:42.433Z,90.05
2023-02-11T00:51:10.224Z,90.45
2023-02-11T00:53:37.526Z,90.26
2023-02-11T00:56:06.085Z,90.35
2023-02-11T00:58:34.397Z,90.83
2023-02-11T01:01:02.391Z,91.15
2023-02-11T01:03:30.126Z,91.90
2023-02-11T01:05:57.553Z,92.47
2023-02-11T01:08:24.850Z,92.42
2023-02-11T01:11:00.538Z,92.88
2023-02-11T01:13:28.225Z,92.19
2023-02-11T01:15:55.831Z,92.02
2023-02-11T01:18:23.288Z,92.33
2023-02-11T01:20:53.956Z,91.75
2023-02-11T01:23:21.328Z,91.53
2023-02-11T01:25:48.978Z,90.31
2023-02-11T01:28:20.912Z,89.57
2023-02-11T01:30:48.317Z,89.35
2023-02-11T01:33:15.616Z,88.69
2023-02-11T01:35:43.187Z,88.88
2023-02-11T01:38:18.412Z,88.41
2023-02-11T01:40:50.210Z,88.38
2023-02-11T01:43:17.464Z,88.31
2023-02-11T01:45:44.922Z,87.86
2023-02-11T01:48:16.220Z,88.34
2023-02-11T01:50:43.506Z,87.69
2023-02-11T01:53:29.549Z,87.81
2023-02-11T01:56:15.957Z,86.96
2023-02-11T01:58:44.315Z,87.41
2023-02-11T02:01:13.340Z,88.51
2023-02-11T02:03:41.883Z,89.06
2023-02-11T02:06:23.371Z,89.37
2023-02-11T02:08:55.420Z,88.50
2023-02-11T02:11:26.413Z,87.96
2023-02-11T02:13:54.215Z,87.75
2023-02-11T02:16:21.782Z,87.44
2023-02-11T02:19:07.919Z,87.12
2023-02-11T02:22:14.304Z,87.48
2023-02-11T02:25:01.114Z,86.74
2023-02-11T02:28:03.519Z,87.09
2023-02-11T02:30:46.463Z,87.41
2023-02-11T02:33:52.319Z,87.57
2023-02-11T02:36:31.546Z,87.46
2023-02-11T02:39:12.581Z,88.29
2023-02-11T02:41:39.876Z,88.22
2023-02-11T02:44:07.662Z,88.53
2023-02-11T02:46:37.136Z,88.57
2023-02-11T02:49:07.454Z,89.05
2023-02-11T02:51:55.638Z,89.42
2023-02-11T02:54:40.864Z,89.05
2023-02-11T02:57:31.105Z,88.82
2023-02-11T03:00:04.459Z,88.80
2023-02-11T03:02:36.745Z,88.63
2023-02-11T03:05:04.685Z,88.39
2023-02-11T03:07:43.341Z,88.48
2023-02-11T03:10:17.742Z,88.28
2023-02-11T03:12:45.298Z,88.23
2023-02-11T03:15:12.548Z,88.20
2023-02-11T03:17:42.010Z,88.56
2023-02-11T03:20:10.658Z,88.76
2023-02-11T03:22:41.425Z,88.81
2023-02-11T03:25:08.912Z,88.78
2023-02-11T03:27:41.381Z,88.42
2023-02-11T03:30:18.073Z,88.73
2023-02-11T03:32:50.362Z,88.90
2023-02-11T03:35:26.585Z,88.76
2023-02-11T03:37:59.719Z,88.33
2023-02-11T03:40:32.588Z,88.48
2023-02-11T03:43:03.090Z,88.60
2023-02-11T03:45:30.407Z,88.59
2023-02-11T03:48:08.985Z,88.55
2023-02-11T03:50:36.458Z,88.71
2023-02-11T03:53:03.795Z,88.71
2023-02-11T03:55:31.056Z,88.67
2023-02-11T03:57:58.488Z,88.38
2023-02-11T04:00:33.745Z,88.43
2023-02-11T04:03:01.195Z,88.78
2023-02-11T04:05:28.623Z,89.12
2023-02-11T04:07:55.864Z,89.38
2023-02-11T04:10:24.311Z,89.18
2023-02-11T04:12:52.169Z,89.52
2023-02-11T04:15:19.769Z,89.68
2023-02-11T04:17:46.989Z,89.75
2023-02-11T04:20:14.186Z,89.42
2023-02-11T04:22:41.570Z,89.19
2023-02-11T04:25:09.455Z,89.36
2023-02-11T04:27:36.958Z,89.23
2023-02-11T04:30:05.328Z,89.49
2023-02-11T04:32:32.680Z,89.26
2023-02-11T04:35:01.265Z,88.93
2023-02-11T04:37:29.541Z,89.79
2023-02-11T04:39:56.792Z,88.90
2023-02-11T04:42:25.866Z,89.02
2023-02-11T04:44:53.121Z,89.51
2023-02-11T04:47:20.651Z,89.84
2023-02-11T04:49:47.985Z,90.02
2023-02-11T04:52:16.216Z,89.77
2023-02-11T04:54:43.528Z,89.69
2023-02-11T04:57:10.748Z,90.08
2023-02-11T04:59:38.044Z,90.21
2023-02-11T05:02:05.308Z,89.82
2023-02-11T05:04:32.536Z,89.35
2023-02-11T05:06:59.870Z,89.41
2023-02-11T05:09:28.188Z,90.06
2023-02-11T05:11:55.785Z,89.66
2023-02-11T05:14:23.082Z,89.85
2023-02-11T05:16:50.310Z,89.57
2023-02-11T05:19:17.541Z,89.15
2023-02-11T05:22:00.231Z,89.40
2023-02-11T05:24:31.262Z,89.34
2023-02-11T05:26:59.708Z,89.17
2023-02-11T05:29:27.151Z,88.95
2023-02-11T05:31:58.675Z,89.55
2023-02-11T05:34:25.932Z,88.53
2023-02-11T05:36:53.133Z,88.51
2023-02-11T05:39:20.418Z,89.03
2023-02-11T05:41:47.668Z,88.75
2023-02-11T05:44:14.916Z,88.36
2023-02-11T05:46:42.411Z,88.08
2023-02-11T05:49:10.251Z,87.94
2023-02-11T05:51:37.577Z,88.31
2023-02-11T05:54:04.991Z,88.36
2023-02-11T05:56:32.224Z,87.98
2023-02-11T05:59:00.054Z,88.42
2023-02-11T06:01:27.355Z,87.98
2023-02-11T06:03:55.066Z,88.18
2023-02-11T06:06:22.938Z,87.65
2023-02-11T06:08:50.573Z,87.87
2023-02-11T06:11:17.996Z,87.52
2023-02-11T06:13:45.453Z,88.08
2023-02-11T06:16:13.085Z,87.47
2023-02-11T06:18:40.336Z,87.72
2023-02-11T06:21:08.638Z,87.19
2023-02-11T06:23:36.583Z,86.54
2023-02-11T06:26:08.412Z,86.72
2023-02-11T06:28:36.285Z,86.54
2023-02-11T06:31:07.335Z,86.17
2023-02-11T06:33:35.738Z,85.96
2023-02-11T06:36:03.352Z,85.40
2023-02-11T06:38:31.004Z,86.08
2023-02-11T06:40:58.326Z,85.73
2023-02-11T06:43:26.493Z,84.78
2023-02-11T06:45:54.495Z,84.19
2023-02-11T06:48:23.154Z,85.07
2023-02-11T06:50:50.421Z,84.91
2023-02-11T06:53:17.769Z,84.51
2023-02-11T06:55:45.074Z,84.04
2023-02-11T06:58:12.623Z,84.22
2023-02-11T07:00:39.994Z,82.76
2023-02-11T07:03:07.512Z,72.62
2023-02-11T07:05:35.124Z,55.37
2023-02-11T07:08:02.471Z,48.99
2023-02-11T07:10:36.338Z,44.94
2023-02-11T07:13:04.522Z,42.99
2023-02-11T07:15:32.295Z,41.16
2023-02-11T07:17:59.822Z,39.39
2023-02-11T07:20:27.281Z,39.81
2023-02-11T07:22:55.024Z,40.18
2023-02-11T07:25:22.268Z,39.80
2023-02-11T07:27:50.264Z,38.38
2023-02-11T07:30:17.700Z,36.77
2023-02-11T07:32:44.974Z,36.54
2023-02-11T07:35:14.950Z,36.36
2023-02-11T07:37:42.530Z,36.17
2023-02-11T07:40:10.402Z,36.25
2023-02-11T07:42:37.755Z,36.13
2023-02-11T07:45:05.345Z,36.01
2023-02-11T07:47:34.705Z,36.48
2023-02-11T07:50:02.852Z,37.91
2023-02-11T07:52:31.061Z,41.52
2023-02-11T07:54:58.484Z,45.61
2023-02-11T07:57:26.044Z,47.25
2023-02-11T07:59:53.520Z,48.55
2023-02-11T08:02:21.087Z,50.76
2023-02-11T08:04:49.355Z,52.53
2023-02-11T08:07:17.403Z,50.40
2023-02-11T08:09:46.326Z,47.99
2023-02-11T08:12:13.546Z,44.16
2023-02-11T08:14:40.812Z,41.18
2023-02-11T08:17:08.837Z,40.19
2023-02-11T08:19:37.122Z,38.14
2023-02-11T08:22:04.666Z,37.10
2023-02-11T08:24:32.123Z,38.75
2023-02-11T08:27:02.370Z,37.29
2023-02-11T08:29:29.858Z,37.55
2023-02-11T08:31:57.125Z,36.57
2023-02-11T08:34:24.665Z,35.32
2023-02-11T08:36:51.942Z,35.10
2023-02-11T08:39:21.252Z,36.10
2023-02-11T08:41:49.630Z,37.55
2023-02-11T08:44:18.011Z,38.47
2023-02-11T08:46:45.286Z,40.47
2023-02-11T08:49:12.673Z,40.27
2023-02-11T08:51:40.048Z,40.36
2023-02-11T08:54:10.196Z,41.16
2023-02-11T08:56:38.177Z,41.34
2023-02-11T08:59:07.210Z,42.35
2023-02-11T09:01:34.532Z,43.41
2023-02-11T09:04:01.880Z,43.50
2023-02-11T09:06:29.498Z,42.91
2023-02-11T09:08:57.101Z,43.78
2023-02-11T09:11:31.019Z,44.03
2023-02-11T09:14:00.366Z,42.22
2023-02-11T09:16:32.405Z,42.89
2023-02-11T09:19:02.915Z,43.57
2023-02-11T09:21:30.641Z,43.29
2023-02-11T09:23:57.868Z,43.67
2023-02-11T09:26:27.032Z,45.64
2023-02-11T09:28:54.672Z,46.68
2023-02-11T09:31:23.527Z,47.45
2023-02-11T09:33:52.386Z,47.60
2023-02-11T09:36:24.344Z,48.74
2023-02-11T09:38:51.825Z,49.71
2023-02-11T09:41:56.568Z,49.08
2023-02-11T09:44:28.361Z,49.91
2023-02-11T09:47:16.680Z,50.80
2023-02-11T09:49:49.299Z,52.45
2023-02-11T09:52:34.713Z,52.70
2023-02-11T09:55:03.977Z,52.79
2023-02-11T09:57:34.111Z,53.21
2023-02-11T10:00:28.742Z,53.84
2023-02-11T10:03:14.896Z,54.50
2023-02-11T10:05:56.606Z,54.63
2023-02-11T10:09:01.654Z,53.74
2023-02-11T10:12:17.176Z,53.22
2023-02-11T10:15:08.602Z,53.54
2023-02-11T10:17:46.472Z,52.34
2023-02-11T10:20:19.589Z,53.53
2023-02-11T10:22:53.290Z,53.60
2023-02-11T10:25:40.337Z,55.58
2023-02-11T10:28:29.612Z,54.37
2023-02-11T10:31:48.900Z,54.09
2023-02-11T10:34:16.167Z,54.75
2023-02-11T10:36:44.215Z,54.96
2023-02-11T10:39:12.183Z,54.48
2023-02-11T10:42:01.976Z,53.75
2023-02-11T10:44:33.646Z,54.47
2023-02-11T10:47:04.529Z,54.58
2023-02-11T10:49:42.027Z,55.87
2023-02-11T10:52:19.776Z,57.54
2023-02-11T10:55:01.039Z,57.29
2023-02-11T10:57:40.441Z,57.70
2023-02-11T11:00:41.447Z,58.33
2023-02-11T11:03:25.419Z,57.83
2023-02-11T11:05:57.377Z,57.18
2023-02-11T11:08:46.621Z,57.02
2023-02-11T11:11:19.668Z,58.09
2023-02-11T11:13:53.735Z,57.84
2023-02-11T11:16:32.428Z,59.23
2023-02-11T11:19:09.012Z,59.75
2023-02-11T11:21:55.723Z,59.06
2023-02-11T11:24:31.916Z,59.59
2023-02-11T11:27:03.650Z,59.92
2023-02-11T11:29:37.337Z,61.21
2023-02-11T11:32:20.796Z,61.48
2023-02-11T11:34:55.739Z,62.25
2023-02-11T11:37:24.948Z,62.29
2023-02-11T11:40:15.752Z,62.75
2023-02-11T11:42:43.113Z,62.58
2023-02-11T11:45:19.610Z,63.27
2023-02-11T11:47:52.909Z,63.62
2023-02-11T11:50:27.763Z,64.87
2023-02-11T11:53:00.289Z,66.61
2023-02-11T11:55:42.725Z,67.12
2023-02-11T11:58:18.335Z,66.55
2023-02-11T12:01:11.411Z,67.45
2023-02-11T12:03:53.409Z,68.07
2023-02-11T12:06:26.877Z,69.74
2023-02-11T12:09:07.902Z,71.00
2023-02-11T12:11:57.673Z,71.01
2023-02-11T12:14:44.257Z,70.58
2023-02-11T12:17:37.394Z,70.00
2023-02-11T12:20:14.094Z,70.99
2023-02-11T12:23:21.908Z,70.25
2023-02-11T12:26:05.814Z,69.76
2023-02-11T12:29:00.762Z,70.23
2023-02-11T12:31:43.410Z,71.45
2023-02-11T12:34:44.763Z,71.71
2023-02-11T12:37:19.882Z,72.00
2023-02-11T12:40:11.344Z,72.37
2023-02-11T12:42:58.350Z,71.91
2023-02-11T12:45:41.517Z,73.18
2023-02-11T12:48:22.891Z,73.86
2023-02-11T12:51:01.750Z,74.00
2023-02-11T12:54:03.398Z,74.94
2023-02-11T12:56:40.588Z,76.58
2023-02-11T12:59:39.952Z,76.27
2023-02-11T13:02:21.923Z,77.45
2023-02-11T13:04:54.437Z,77.85
2023-02-11T13:07:27.632Z,78.22
2023-02-11T13:10:02.163Z,78.98
2023-02-11T13:12:48.673Z,79.58
2023-02-11T13:15:16.163Z,80.20
2023-02-11T13:18:09.539Z,80.64
2023-02-11T13:20:45.466Z,81.63
2023-02-11T13:23:25.757Z,82.22
2023-02-11T13:25:57.764Z,82.74
2023-02-11T13:28:37.325Z,83.33
2023-02-11T13:31:07.666Z,83.27
2023-02-11T13:33:36.300Z,83.48
2023-02-11T13:36:04.719Z,83.54
2023-02-11T13:38:32.617Z,83.26
2023-02-11T13:41:08.144Z,84.19
2023-02-11T13:43:36.257Z,84.39
2023-02-11T13:46:10.166Z,84.47
2023-02-11T13:48:48.148Z,83.95
2023-02-11T13:51:17.477Z,84.26
2023-02-11T13:53:45.598Z,84.23
2023-02-11T13:56:31.327Z,84.43
2023-02-11T13:59:02.040Z,84.58
2023-02-11T14:02:04.831Z,84.25
2023-02-11T14:04:51.610Z,84.70
2023-02-11T14:07:51.292Z,85.09
2023-02-11T14:10:43.649Z,85.02
2023-02-11T14:13:33.010Z,85.98
2023-02-11T14:16:22.570Z,85.53
2023-02-11T14:18:55.677Z,85.15
2023-02-11T14:21:32.380Z,85.17
2023-02-11T14:24:10.108Z,85.98
2023-02-11T14:26:46.159Z,86.08
2023-02-11T14:29:17.558Z,85.99
2023-02-11T14:32:05.767Z,85.99
2023-02-11T14:35:12.440Z,86.51
2023-02-11T14:38:11.624Z,86.75
2023-02-11T14:41:09.846Z,87.48
2023-02-11T14:43:46.931Z,87.78
2023-02-11T14:46:18.068Z,88.35
2023-02-11T14:48:50.064Z,88.69
2023-02-11T14:51:23.549Z,88.82
2023-02-11T14:53:52.278Z,89.69
2023-02-11T14:56:26.465Z,91.04
2023-02-11T14:58:54.549Z,91.42
2023-02-11T15:01:35.480Z,92.02
2023-02-11T15:04:04.539Z,92.33
2023-02-11T15:06:34.000Z,92.37
2023-02-11T15:09:04.801Z,92.71
2023-02-11T15:11:38.205Z,92.61
2023-02-11T15:14:24.689Z,93.09
2023-02-11T15:16:55.815Z,93.75
2023-02-11T15:19:23.978Z,94.15
2023-02-11T15:21:51.220Z,94.41
2023-02-11T15:24:28.762Z,94.63
2023-02-11T15:27:18.567Z,94.70
2023-02-11T15:29:49.178Z,95.59
2023-02-11T15:32:18.559Z,95.52
2023-02-11T15:34:46.396Z,95.73
2023-02-11T15:37:25.078Z,95.62
2023-02-11T15:39:53.118Z,95.66
2023-02-11T15:42:24.944Z,95.70
2023-02-11T15:45:31.114Z,95.63
2023-02-11T15:48:09.916Z,96.17
2023-02-11T15:50:37.364Z,97.13
2023-02-11T15:53:19.769Z,97.08
2023-02-11T15:55:48.969Z,97.35
2023-02-11T15:58:16.394Z,97.47
2023-02-11T16:00:48.310Z,97.94
2023-02-11T16:03:23.336Z,98.49
2023-02-11T16:05:50.666Z,98.54
2023-02-11T16:08:25.910Z,98.43
2023-02-11T16:10:58.758Z,99.25
2023-02-11T16:13:28.234Z,99.48
2023-02-11T16:15:57.910Z,99.50
2023-02-11T16:18:38.148Z,99.77
2023-02-11T16:21:14.767Z,99.88
2023-02-11T16:23:42.467Z,100.00
2023-02-11T16:26:27.904Z,100.00
2023-02-11T16:29:11.165Z,99.92
2023-02-11T16:31:41.173Z,100.00
2023-02-11T16:34:18.934Z,100.00
2023-02-11T16:36:49.047Z,100.00
2023-02-11T16:39:16.911Z,100.00
2023-02-11T16:41:44.254Z,100.00
2023-02-11T16:44:11.546Z,100.00
2023-02-11T16:46:38.995Z,100.00
2023-02-11T16:49:11.700Z,100.00
2023-02-11T16:51:39.686Z,100.00
2023-02-11T16:54:12.119Z,100.00
2023-02-11T16:56:39.714Z,100.00
2023-02-11T16:59:06.975Z,100.00
2023-02-11T17:01:34.288Z,100.00
2023-02-11T17:04:01.537Z,100.00
2023-02-11T17:06:30.182Z,100.00
2023-02-11T17:08:57.950Z,100.00
2023-02-11T17:11:25.287Z,100.00
2023-02-11T17:13:52.512Z,100.00
2023-02-11T17:16:21.554Z,100.00
2023-02-11T17:18:49.852Z,100.00
2023-02-11T17:21:17.252Z,100.00
2023-02-11T17:23:46.113Z,100.00
2023-02-11T17:26:13.395Z,100.00
2023-02-11T17:28:41.511Z,100.00
2023-02-11T17:31:09.486Z,100.00
2023-02-11T17:33:37.916Z,100.00
2023-02-11T17:36:07.453Z,100.00
2023-02-11T17:38:35.199Z,100.00
2023-02-11T17:41:03.363Z,100.00
2023-02-11T17:43:31.420Z,100.00
2023-02-11T17:45:58.839Z,100.00
2023-02-11T17:48:26.205Z,100.00
2023-02-11T17:50:53.533Z,100.00
2023-02-11T17:53:20.878Z,100.00
2023-02-11T17:55:48.417Z,100.00
2023-02-11T17:58:15.865Z,100.00
2023-02-11T18:00:43.510Z,100.00
2023-02-11T18:03:10.782Z,100.00
2023-02-11T18:05:39.021Z,100.00
2023-02-11T18:08:06.622Z,100.00
2023-02-11T18:10:34.151Z,100.00
2023-02-11T18:13:02.055Z,100.00
2023-02-11T18:15:33.483Z,100.00
2023-02-11T18:18:00.857Z,100.00
2023-02-11T18:20:28.092Z,100.00
2023-02-11T18:22:55.520Z,100.00
2023-02-11T18:25:22.787Z,100.00
2023-02-11T18:27:50.105Z,100.00
2023-02-11T18:30:17.971Z,100.00
2023-02-11T18:32:46.759Z,100.00
2023-02-11T18:35:15.614Z,100.00
2023-02-11T18:37:43.166Z,100.00
2023-02-11T18:40:11.440Z,100.00
2023-02-11T18:42:38.775Z,100.00
2023-02-11T18:45:09.427Z,100.00
2023-02-11T18:47:37.795Z,100.00
2023-02-11T18:50:06.239Z,100.00
2023-02-11T18:52:36.736Z,100.00
2023-02-11T18:55:07.914Z,100.00
2023-02-11T18:57:36.856Z,100.00
2023-02-11T19:00:06.044Z,100.00
2023-02-11T19:02:33.607Z,100.00
2023-02-11T19:05:01.938Z,100.00
2023-02-11T19:07:30.142Z,100.00
2023-02-11T19:09:59.409Z,100.00
2023-02-11T19:12:26.817Z,100.00
2023-02-11T19:15:00.462Z,100.00
2023-02-11T19:17:28.087Z,100.00
2023-02-11T19:19:55.297Z,100.00
2023-02-11T19:22:22.568Z,100.00
2023-02-11T19:24:50.012Z,100.00
2023-02-11T19:27:17.927Z,100.00
2023-02-11T19:29:45.423Z,100.00
2023-02-11T19:32:12.671Z,100.00
2023-02-11T19:34:43.478Z,100.00
2023-02-11T19:37:12.714Z,100.00
2023-02-11T19:39:40.812Z,100.00
2023-02-11T19:42:08.404Z,100.00
2023-02-11T19:44:35.758Z,100.00
2023-02-11T19:47:03.112Z,100.00
2023-02-11T19:49:31.682Z,100.00
2023-02-11T19:52:00.598Z,100.00
2023-02-11T19:54:29.299Z,100.00
2023-02-11T19:56:56.607Z,100.00
2023-02-11T19:59:23.956Z,100.00
2023-02-11T20:01:53.186Z,100.00
2023-02-11T20:04:20.646Z,100.00
2023-02-11T20:06:50.860Z,100.00
2023-02-11T20:09:18.139Z,100.00
2023-02-11T20:11:45.343Z,100.00
2023-02-11T20:14:15.205Z,100.00
2023-02-11T20:16:48.996Z,100.00
2023-02-11T20:19:21.537Z,100.00
2023-02-11T20:21:50.708Z,100.00
2023-02-11T20:24:18.149Z,100.00
2023-02-11T20:26:46.924Z,100.00
2023-02-11T20:29:15.583Z,100.00
2023-02-11T20:31:43.276Z,100.00
2023-02-11T20:34:11.223Z,100.00
2023-02-11T20:36:40.299Z,100.00
2023-02-11T20:39:08.018Z,100.00
2023-02-11T20:41:36.146Z,100.00
2023-02-11T20:44:05.372Z,100.00
2023-02-11T20:46:34.501Z,100.00
2023-02-11T20:49:02.840Z,100.00
2023-02-11T20:51:31.802Z,100.00
2023-02-11T20:53:59.318Z,100.00
2023-02-11T20:56:29.488Z,100.00
2023-02-11T20:58:58.349Z,100.00
2023-02-11T21:01:27.989Z,100.00
2023-02-11T21:03:57.218Z,100.00
2023-02-11T21:06:26.478Z,100.00
2023-02-11T21:08:54.208Z,100.00
2023-02-11T21:11:21.724Z,100.00
2023-02-11T21:13:51.052Z,100.00
2023-02-11T21:16:20.456Z,100.00
2023-02-11T21:18:49.364Z,100.00
2023-02-11T21:21:17.454Z,100.00
2023-02-11T21:23:45.498Z,100.00
2023-02-11T21:26:12.970Z,100.00
2023-02-11T21:28:41.149Z,100.00
2023-02-11T21:31:09.008Z,100.00
2023-02-11T21:33:37.976Z,100.00
2023-02-11T21:36:07.954Z,100.00
2023-02-11T21:38:35.943Z,100.00
2023-02-11T21:41:06.273Z,100.00
2023-02-11T21:43:33.732Z,100.00
2023-02-11T21:46:01.072Z,100.00
2023-02-11T21:48:28.449Z,100.00
2023-02-11T21:50:55.908Z,100.00
2023-02-11T21:53:23.420Z,100.00
2023-02-11T21:55:51.355Z,100.00
2023-02-11T21:58:18.835Z,100.00
2023-02-11T22:00:46.217Z,100.00
2023-02-11T22:03:13.616Z,100.00
2023-02-11T22:05:41.362Z,100.00
2023-02-11T22:08:08.705Z,100.00
2023-02-11T22:10:35.974Z,100.00
2023-02-11T22:13:03.281Z,100.00
2023-02-11T22:15:32.462Z,100.00
2023-02-11T22:17:59.737Z,100.00
2023-02-11T22:20:26.988Z,100.00
2023-02-11T22:22:54.386Z,100.00
2023-02-11T22:25:21.838Z,100.00
2023-02-11T22:27:49.099Z,100.00
2023-02-11T22:30:16.679Z,100.00
2023-02-11T22:32:44.409Z,100.00
2023-02-11T22:35:11.720Z,100.00
2023-02-11T22:37:40.385Z,100.00
2023-02-11T22:40:08.375Z,100.00
2023-02-11T22:42:36.484Z,100.00
2023-02-11T22:45:04.243Z,100.00
2023-02-11T22:47:32.219Z,100.00
2023-02-11T22:49:59.454Z,100.00
2023-02-11T22:52:28.376Z,100.00
2023-02-11T22:54:56.277Z,100.00
2023-02-11T22:57:23.596Z,100.00
2023-02-11T22:59:50.993Z,100.00
2023-02-11T23:02:18.416Z,100.00
2023-02-11T23:04:47.808Z,100.00
2023-02-11T23:07:16.197Z,100.00
2023-02-11T23:09:44.482Z,100.00
2023-02-11T23:12:11.735Z,100.00
2023-02-11T23:14:42.702Z,100.00
2023-02-11T23:17:09.934Z,100.00
2023-02-11T23:19:38.991Z,100.00
2023-02-11T23:22:06.512Z,100.00
2023-02-11T23:24:33.802Z,100.00
2023-02-11T23:27:01.023Z,100.00
2023-02-11T23:29:28.289Z,100.00
2023-02-11T23:31:58.455Z,100.00
2023-02-11T23:34:26.179Z,100.00
2023-02-11T23:36:53.464Z,100.00
2023-02-11T23:39:20.687Z,100.00
2023-02-11T23:41:47.999Z,100.00
2023-02-11T23:44:15.263Z,100.00
2023-02-11T23:46:43.053Z,100.00
2023-02-11T23:49:10.349Z,100.00
2023-02-11T23:51:37.741Z,100.00
2023-02-11T23:54:05.118Z,100.00
2023-02-11T23:56:33.587Z,100.00
2023-02-11T23:59:00.926Z,100.00
